Sanibel, FL (33957)

4:59 PM EST on January 29, 2015 (GMT -0500)
Rabbit Road | Change Station
CLOSE
Current Station
Personal Weather Station
Location: Sanibel, FL
Elevation: 7 ft
Nearby Weather Stations

Elev 7 ft 26.44 °N, 82.11 °W | Updated 4 seconds ago

Clear
Clear
69.3 °F
Feels Like 69.3 °F
N
3.4
Wind Variable Wind from NW
Gusts 4.9 mph

Today
High -- | Low -- °F
--% Chance of Precip.
Yesterday
High -- | Low -- °F
Precip. -- in
7:14 AM 6:08 PM
Waxing Gibbous, 77% visible
Pressure 30.20 in
Visibility 10.0 miles
Clouds Clear
Dew Point 30 °F
Humidity 23%
Rainfall 0.00 in
Snow Depth Not available.
UV 1 out of 12
Pollen 8.90 out of 12
Air Quality Not available.
Flu Activity Not available.
METAR KFMY 292153Z 10007KT 10SM CLR 22/08 A3019 RMK AO2 SLP226 T02220083

More Conditions Fewer Conditions

Pressure 30.20 in
Visibility 10.0 miles
Clouds Clear
Dew Point 30 °F
Humidity 23%
Rainfall 0.00 in
Snow Depth Not available.
UV 1 out of 12
Pollen 8.90 out of 12
Air Quality Not available.
Flu Activity Not available.
METAR KFMY 292153Z 10007KT 10SM CLR 22/08 A3019 RMK AO2 SLP226 T02220083

More Conditions Fewer Conditions

10-Day Weather Forecast

Almanac

Astronomy

Jan. 29, 2015 Rise Set
Actual Time
Civil Twilight
Nautical Twilight
Astronomical Twilight
Moon
Length of Visible Light
Length of Day
Tomorrow will be .
, % of the Moon is Illuminated

Today's Extremes

State Highs State Lows

Community

WunderPhotos

Upload Photos

1,791,615 photos uploaded!

WunderBlogs® & News

Nearby

Air Quality

  Air Quality AQ Index Pollutant
Not available.

Snow Depth

Station Depth Elevation

Earthquake Activity

City Distance Mag. Time & Date
Minimum magnitude displayed is 2.5.

Coastal Water Temperatures

Place Temperature

Nearby Weather Stations